createdAt,value
2022-08-03T00:01:20.201Z,23.69
2022-08-03T00:03:46.607Z,23.81
2022-08-03T00:06:12.997Z,23.81
2022-08-03T00:08:40.282Z,24.36
2022-08-03T00:11:06.837Z,24.77
2022-08-03T00:13:33.260Z,23.76
2022-08-03T00:15:59.720Z,23.69
2022-08-03T00:18:26.141Z,23.90
2022-08-03T00:20:52.530Z,23.95
2022-08-03T00:23:18.994Z,23.92
2022-08-03T00:25:45.395Z,24.02
2022-08-03T00:28:11.773Z,24.05
2022-08-03T00:30:38.431Z,24.33
2022-08-03T00:33:08.289Z,24.33
2022-08-03T00:35:49.245Z,25.45
2022-08-03T00:38:17.507Z,24.11
2022-08-03T00:40:43.886Z,24.07
2022-08-03T00:43:10.316Z,24.13
2022-08-03T00:45:36.751Z,24.29
2022-08-03T00:48:03.128Z,24.17
2022-08-03T00:50:29.522Z,24.43
2022-08-03T00:52:55.972Z,24.24
2022-08-03T00:55:22.360Z,24.58
2022-08-03T00:57:48.754Z,24.89
2022-08-03T01:00:15.320Z,25.45
2022-08-03T01:02:41.713Z,24.16
2022-08-03T01:05:08.106Z,24.27
2022-08-03T01:07:34.571Z,24.54
2022-08-03T01:10:00.947Z,24.66
2022-08-03T01:12:27.343Z,24.59
2022-08-03T01:14:53.884Z,24.83
2022-08-03T01:17:20.281Z,24.60
2022-08-03T01:19:46.677Z,24.75
2022-08-03T01:22:13.350Z,25.01
2022-08-03T01:24:40.882Z,25.93
2022-08-03T01:27:07.430Z,24.91
2022-08-03T01:29:33.875Z,24.75
2022-08-03T01:32:59.657Z,24.42
2022-08-03T01:34:46.661Z,24.76
2022-08-03T01:37:13.096Z,24.56
2022-08-03T01:39:39.475Z,24.63
2022-08-03T01:42:05.953Z,24.96
2022-08-03T01:44:32.348Z,24.83
2022-08-03T01:46:58.778Z,26.33
2022-08-03T01:49:25.396Z,25.20
2022-08-03T01:51:58.496Z,24.59
2022-08-03T01:54:31.158Z,24.25
2022-08-03T01:56:57.571Z,24.27
2022-08-03T01:59:23.973Z,24.37
2022-08-03T02:02:19.526Z,24.23
2022-08-03T02:04:36.815Z,24.56
2022-08-03T02:07:03.559Z,24.39
2022-08-03T02:09:30.033Z,24.80
2022-08-03T02:11:56.456Z,25.49
2022-08-03T02:14:22.864Z,24.32
2022-08-03T02:16:49.307Z,23.84
2022-08-03T02:19:15.717Z,23.91
2022-08-03T02:21:56.485Z,23.99
2022-08-03T02:24:27.596Z,24.39
2022-08-03T02:26:54.062Z,24.24
2022-08-03T02:29:20.486Z,24.31
2022-08-03T02:32:05.597Z,24.40
2022-08-03T02:34:31.998Z,26.52
2022-08-03T02:36:58.378Z,24.42
2022-08-03T02:39:24.886Z,24.12
2022-08-03T02:41:51.281Z,23.94
2022-08-03T02:44:17.692Z,24.08
2022-08-03T02:46:44.190Z,24.27
2022-08-03T02:49:40.979Z,24.38
2022-08-03T02:51:57.019Z,24.78
2022-08-03T02:54:23.492Z,24.60
2022-08-03T02:56:49.910Z,26.08
2022-08-03T02:59:16.497Z,25.13
2022-08-03T03:01:42.902Z,24.56
2022-08-03T03:04:09.336Z,24.45
2022-08-03T03:06:35.776Z,24.46
2022-08-03T03:09:03.122Z,24.55
2022-08-03T03:11:29.517Z,24.90
2022-08-03T03:13:55.944Z,25.20
2022-08-03T03:16:22.325Z,25.07
2022-08-03T03:18:48.706Z,25.38
2022-08-03T03:21:15.141Z,26.26
2022-08-03T03:23:41.587Z,24.79
2022-08-03T03:26:08.116Z,24.98
2022-08-03T03:28:34.607Z,24.66
2022-08-03T03:31:00.993Z,24.85
2022-08-03T03:33:28.586Z,24.94
2022-08-03T03:35:55.271Z,25.17
2022-08-03T03:38:21.737Z,25.16
2022-08-03T03:40:48.116Z,25.19
2022-08-03T03:43:14.628Z,27.60
2022-08-03T03:45:41.015Z,25.79
2022-08-03T03:48:07.411Z,25.28
2022-08-03T03:50:33.907Z,25.30
2022-08-03T03:53:00.368Z,25.30
2022-08-03T03:55:26.858Z,25.50
2022-08-03T03:57:53.300Z,26.01
2022-08-03T04:00:19.743Z,25.97
2022-08-03T04:02:46.121Z,26.03
2022-08-03T04:05:12.663Z,27.66
2022-08-03T04:07:39.089Z,26.38
2022-08-03T04:10:14.064Z,25.88
2022-08-03T04:12:50.129Z,25.87
2022-08-03T04:15:17.123Z,25.61
2022-08-03T04:17:43.600Z,26.10
2022-08-03T04:20:10.034Z,25.82
2022-08-03T04:22:36.538Z,26.11
2022-08-03T04:25:03.079Z,26.21
2022-08-03T04:27:29.503Z,27.73
2022-08-03T04:29:55.909Z,26.34
2022-08-03T04:32:22.440Z,26.22
2022-08-03T04:34:48.820Z,26.27
2022-08-03T04:37:15.266Z,25.95
2022-08-03T04:39:41.832Z,26.39
2022-08-03T04:42:09.175Z,26.15
2022-08-03T04:44:35.723Z,26.44
2022-08-03T04:47:02.201Z,26.44
2022-08-03T04:49:28.659Z,28.51
2022-08-03T04:51:55.210Z,27.26
2022-08-03T04:54:21.665Z,26.69
2022-08-03T04:56:48.062Z,26.76
2022-08-03T04:59:14.474Z,27.03
2022-08-03T05:01:40.997Z,27.75
2022-08-03T05:04:07.417Z,27.60
2022-08-03T05:06:33.801Z,27.95
2022-08-03T05:09:01.855Z,27.69
2022-08-03T05:11:28.275Z,29.55
2022-08-03T05:13:56.245Z,28.31
2022-08-03T05:16:22.703Z,28.17
2022-08-03T05:18:49.088Z,28.35
2022-08-03T05:21:15.478Z,28.42
2022-08-03T05:23:41.943Z,28.58
2022-08-03T05:26:08.754Z,28.76
2022-08-03T05:28:36.109Z,28.55
2022-08-03T05:31:02.556Z,29.63
2022-08-03T05:33:28.943Z,29.60
2022-08-03T05:36:03.372Z,28.74
2022-08-03T05:38:34.841Z,28.55
2022-08-03T05:41:22.507Z,28.69
2022-08-03T05:43:48.232Z,28.75
2022-08-03T05:46:14.622Z,28.70
2022-08-03T05:48:41.062Z,29.23
2022-08-03T05:51:07.497Z,28.79
2022-08-03T05:53:33.968Z,30.83
2022-08-03T05:56:02.695Z,29.55
2022-08-03T05:58:39.922Z,29.44
2022-08-03T06:01:06.355Z,29.63
2022-08-03T06:03:35.098Z,29.59
2022-08-03T06:06:01.571Z,29.87
2022-08-03T06:08:27.968Z,30.53
2022-08-03T06:10:54.403Z,30.89
2022-08-03T06:13:20.905Z,32.20
2022-08-03T06:15:47.278Z,32.75
2022-08-03T06:18:13.697Z,32.36
2022-08-03T06:20:40.192Z,32.65
2022-08-03T06:23:06.601Z,32.61
2022-08-03T06:25:33.948Z,32.26
2022-08-03T06:28:00.396Z,32.49
2022-08-03T06:30:26.862Z,32.11
2022-08-03T06:32:53.299Z,31.99
2022-08-03T06:35:19.839Z,32.00
2022-08-03T06:37:46.287Z,32.23
2022-08-03T06:40:13.769Z,31.64
2022-08-03T06:42:40.485Z,32.04
2022-08-03T06:45:08.268Z,31.33
2022-08-03T06:47:34.695Z,31.49
2022-08-03T06:50:12.570Z,31.95
2022-08-03T06:52:43.150Z,32.08
2022-08-03T06:55:09.587Z,32.45
2022-08-03T06:57:36.058Z,31.86
2022-08-03T07:00:08.953Z,33.23
2022-08-03T07:02:38.258Z,31.82
2022-08-03T07:05:05.547Z,31.90
2022-08-03T07:07:31.946Z,32.08
2022-08-03T07:09:58.570Z,32.05
2022-08-03T07:12:24.952Z,32.26
2022-08-03T07:14:51.404Z,31.97
2022-08-03T07:17:17.926Z,32.04
2022-08-03T07:19:44.333Z,31.94
2022-08-03T07:22:10.794Z,32.04
2022-08-03T07:24:37.225Z,32.00
2022-08-03T07:27:03.617Z,31.19
2022-08-03T07:29:29.987Z,31.07
2022-08-03T07:32:01.259Z,32.34
2022-08-03T07:34:27.637Z,36.42
2022-08-03T07:36:54.082Z,36.56
2022-08-03T07:39:20.566Z,37.14
2022-08-03T07:41:46.956Z,37.24
2022-08-03T07:44:13.357Z,37.22
2022-08-03T07:46:39.821Z,36.07
2022-08-03T07:49:06.214Z,37.02
2022-08-03T07:51:32.665Z,35.94
2022-08-03T07:53:59.114Z,36.15
2022-08-03T07:56:25.519Z,35.49
2022-08-03T07:58:51.918Z,35.46
2022-08-03T08:01:18.443Z,35.02
2022-08-03T08:03:52.660Z,35.30
2022-08-03T08:06:20.143Z,35.05
2022-08-03T08:08:46.615Z,35.42
2022-08-03T08:11:13.104Z,35.22
2022-08-03T08:13:39.668Z,35.19
2022-08-03T08:16:06.107Z,35.28
2022-08-03T08:18:32.506Z,34.35
2022-08-03T08:20:59.018Z,34.38
2022-08-03T08:23:41.884Z,34.50
2022-08-03T08:26:10.192Z,34.72
2022-08-03T08:28:36.579Z,34.61
2022-08-03T08:31:04.817Z,34.22
2022-08-03T08:34:05.100Z,34.58
2022-08-03T08:36:17.713Z,34.37
2022-08-03T08:38:44.211Z,33.56
2022-08-03T08:41:10.792Z,34.63
2022-08-03T08:43:37.359Z,34.17
2022-08-03T08:46:03.865Z,33.28
2022-08-03T08:48:30.300Z,33.05
2022-08-03T08:50:56.682Z,33.21
2022-08-03T08:53:27.221Z,33.60
2022-08-03T08:55:58.655Z,33.57
2022-08-03T08:58:26.605Z,33.23
2022-08-03T09:00:53.393Z,33.49
2022-08-03T09:03:22.550Z,32.96
2022-08-03T09:05:56.469Z,33.10
2022-08-03T09:08:23.008Z,33.88
2022-08-03T09:10:49.420Z,33.27
2022-08-03T09:13:15.855Z,32.99
2022-08-03T09:15:42.263Z,32.63
2022-08-03T09:18:27.563Z,32.56
2022-08-03T09:21:03.799Z,32.58
2022-08-03T09:24:01.386Z,33.02
2022-08-03T09:26:29.490Z,32.26
2022-08-03T09:29:02.073Z,32.34
2022-08-03T09:31:30.423Z,32.24
2022-08-03T09:33:56.897Z,31.99
2022-08-03T09:36:23.284Z,32.46
2022-08-03T09:38:50.327Z,32.33
2022-08-03T09:41:16.943Z,32.10
2022-08-03T09:43:43.347Z,31.28
2022-08-03T09:46:09.760Z,31.77
2022-08-03T09:48:36.247Z,31.26
2022-08-03T09:51:14.474Z,31.68
2022-08-03T09:53:59.772Z,31.13
2022-08-03T09:56:33.639Z,31.00
2022-08-03T09:59:03.043Z,30.83
2022-08-03T10:01:29.536Z,30.82
2022-08-03T10:04:03.108Z,30.35
2022-08-03T10:06:31.391Z,31.53
2022-08-03T10:08:57.809Z,30.68
2022-08-03T10:11:24.339Z,30.20
2022-08-03T10:13:58.024Z,29.90
2022-08-03T10:16:28.001Z,30.09
2022-08-03T10:18:54.433Z,27.85
2022-08-03T10:21:20.878Z,27.53
2022-08-03T10:23:47.328Z,27.11
2022-08-03T10:26:13.801Z,26.96
2022-08-03T10:28:44.744Z,26.56
2022-08-03T10:31:11.810Z,26.42
2022-08-03T10:33:50.891Z,26.47
2022-08-03T10:36:19.119Z,28.04
2022-08-03T10:38:45.670Z,27.58
2022-08-03T10:41:12.122Z,26.77
2022-08-03T10:43:38.644Z,26.39
2022-08-03T10:46:05.113Z,26.18
2022-08-03T10:48:31.719Z,25.91
2022-08-03T10:50:58.128Z,25.61
2022-08-03T10:53:24.570Z,25.79
2022-08-03T10:55:50.976Z,25.61
2022-08-03T10:58:30.423Z,25.29
2022-08-03T11:00:57.475Z,25.43
2022-08-03T11:03:23.916Z,25.45
2022-08-03T11:05:50.352Z,25.39
2022-08-03T11:08:17.397Z,27.01
2022-08-03T11:10:43.862Z,26.17
2022-08-03T11:13:10.254Z,25.71
2022-08-03T11:15:36.803Z,25.28
2022-08-03T11:18:03.358Z,25.38
2022-08-03T11:20:33.678Z,25.11
2022-08-03T11:23:00.200Z,25.53
2022-08-03T11:25:54.403Z,24.82
2022-08-03T11:28:13.116Z,25.13
2022-08-03T11:30:41.133Z,25.16
2022-08-03T11:33:07.550Z,25.06
2022-08-03T11:35:34.051Z,25.15
2022-08-03T11:38:03.058Z,25.15
2022-08-03T11:40:31.571Z,25.91
2022-08-03T11:42:58.172Z,26.20
2022-08-03T11:45:24.634Z,25.62
2022-08-03T11:47:51.620Z,25.16
2022-08-03T11:50:18.143Z,25.19
2022-08-03T11:52:44.621Z,24.99
2022-08-03T11:55:11.110Z,24.86
2022-08-03T11:59:00.985Z,24.46
2022-08-03T12:00:23.997Z,24.59
2022-08-03T12:02:52.679Z,24.67
2022-08-03T12:05:19.238Z,24.77
2022-08-03T12:08:03.408Z,24.71
2022-08-03T12:10:32.187Z,24.89
2022-08-03T12:12:58.752Z,24.80
2022-08-03T12:15:25.332Z,26.34
2022-08-03T12:17:55.986Z,25.40
2022-08-03T12:20:31.247Z,24.95
2022-08-03T12:23:01.211Z,24.89
2022-08-03T12:25:38.616Z,24.65
2022-08-03T12:28:06.310Z,24.96
2022-08-03T12:30:52.698Z,24.61
2022-08-03T12:33:19.341Z,24.71
2022-08-03T12:35:52.508Z,24.84
2022-08-03T12:38:21.023Z,24.53
2022-08-03T12:40:47.479Z,24.70
2022-08-03T12:43:13.919Z,24.61
2022-08-03T12:45:40.395Z,24.48
2022-08-03T12:48:06.826Z,26.36
2022-08-03T12:50:33.268Z,25.71
2022-08-03T12:52:59.802Z,25.31
2022-08-03T12:55:26.380Z,24.72
2022-08-03T12:57:52.789Z,24.32
2022-08-03T13:00:21.633Z,24.31
2022-08-03T13:03:17.350Z,24.17
2022-08-03T13:05:42.553Z,24.00
2022-08-03T13:08:09.101Z,24.37
2022-08-03T13:10:37.977Z,24.22
2022-08-03T13:13:04.408Z,24.36
2022-08-03T13:15:33.522Z,24.70
2022-08-03T13:18:05.238Z,25.08
2022-08-03T13:20:31.672Z,25.24
2022-08-03T13:23:00.952Z,26.86
2022-08-03T13:25:27.594Z,25.26
2022-08-03T13:28:04.120Z,24.74
2022-08-03T13:30:31.619Z,24.65
2022-08-03T13:32:58.093Z,24.57
2022-08-03T13:35:25.506Z,24.86
2022-08-03T13:37:52.030Z,24.53
2022-08-03T13:40:18.517Z,24.77
2022-08-03T13:42:50.335Z,24.60
2022-08-03T13:45:16.855Z,24.28
2022-08-03T13:47:43.410Z,24.39
2022-08-03T13:50:09.806Z,24.25
2022-08-03T13:52:36.304Z,23.86
2022-08-03T13:55:02.802Z,24.84
2022-08-03T13:58:03.233Z,25.30
2022-08-03T14:00:26.671Z,24.28
2022-08-03T14:03:01.823Z,23.99
2022-08-03T14:05:32.065Z,24.07
2022-08-03T14:08:04.421Z,23.95
2022-08-03T14:10:31.679Z,23.95
2022-08-03T14:12:58.174Z,24.22
2022-08-03T14:15:24.578Z,24.21
2022-08-03T14:17:51.055Z,23.95
2022-08-03T14:20:36.742Z,24.18
2022-08-03T14:23:04.053Z,24.07
2022-08-03T14:25:30.447Z,23.79
2022-08-03T14:28:09.822Z,23.65
2022-08-03T14:30:36.223Z,25.41
2022-08-03T14:33:02.718Z,24.44
2022-08-03T14:35:29.154Z,24.11
2022-08-03T14:37:55.634Z,23.73
2022-08-03T14:40:22.051Z,23.96
2022-08-03T14:42:48.478Z,23.78
2022-08-03T14:45:20.546Z,23.90
2022-08-03T14:50:28.713Z,23.39
2022-08-03T14:50:42.843Z,23.24
2022-08-03T14:53:10.728Z,23.66
2022-08-03T14:55:38.452Z,23.93
2022-08-03T14:58:19.765Z,24.13
2022-08-03T15:00:47.780Z,23.66
2022-08-03T15:03:15.896Z,24.76
2022-08-03T15:05:43.554Z,24.42
2022-08-03T15:08:10.020Z,23.39
2022-08-03T15:10:44.412Z,22.96
2022-08-03T15:13:12.212Z,22.77
2022-08-03T15:15:38.700Z,21.96
2022-08-03T15:18:05.126Z,22.40
2022-08-03T15:20:43.270Z,22.20
2022-08-03T15:23:10.605Z,22.66
2022-08-03T15:26:03.957Z,22.90
2022-08-03T15:28:23.510Z,22.35
2022-08-03T15:30:49.990Z,22.51
2022-08-03T15:33:16.420Z,22.74
2022-08-03T15:35:42.813Z,22.56
2022-08-03T15:38:09.860Z,23.79
2022-08-03T15:40:36.398Z,22.78
2022-08-03T15:43:02.801Z,22.54
2022-08-03T15:45:29.254Z,22.26
2022-08-03T15:48:02.890Z,22.53
2022-08-03T15:50:29.397Z,22.33
2022-08-03T15:52:55.803Z,22.25
2022-08-03T15:55:22.520Z,22.52
2022-08-03T15:59:09.104Z,22.83
2022-08-03T16:00:35.436Z,22.90
2022-08-03T16:03:01.971Z,22.55
2022-08-03T16:05:28.375Z,22.78
2022-08-03T16:08:02.611Z,22.68
2022-08-03T16:10:30.547Z,23.30
2022-08-03T16:12:56.946Z,23.45
2022-08-03T16:15:23.400Z,22.83
2022-08-03T16:17:49.941Z,22.62
2022-08-03T16:20:31.261Z,22.47
2022-08-03T16:23:01.551Z,22.39
2022-08-03T16:25:35.537Z,22.64
2022-08-03T16:28:07.867Z,22.53
2022-08-03T16:30:39.647Z,22.10
2022-08-03T16:33:06.430Z,22.02
2022-08-03T16:35:32.856Z,21.86
2022-08-03T16:37:59.261Z,21.88
2022-08-03T16:40:25.786Z,21.52
2022-08-03T16:42:52.189Z,21.47
2022-08-03T16:45:18.584Z,22.48
2022-08-03T16:47:45.099Z,22.62
2022-08-03T16:50:19.080Z,21.38
2022-08-03T16:52:47.416Z,21.12
2022-08-03T16:55:15.543Z,20.88
2022-08-03T16:57:59.364Z,21.03
2022-08-03T17:00:34.376Z,20.73
2022-08-03T17:03:12.531Z,20.90
2022-08-03T17:05:49.546Z,20.88
2022-08-03T17:08:16.391Z,21.08
2022-08-03T17:10:52.825Z,21.02
2022-08-03T17:13:22.477Z,21.33
2022-08-03T17:16:00.727Z,21.45
2022-08-03T17:18:28.120Z,21.54
2022-08-03T17:20:54.550Z,21.63
2022-08-03T17:23:35.570Z,23.38
2022-08-03T17:26:04.861Z,22.40
2022-08-03T17:28:49.702Z,21.80
2022-08-03T17:31:22.891Z,21.81
2022-08-03T17:33:57.475Z,21.68
2022-08-03T17:36:32.974Z,21.66
2022-08-03T17:39:08.553Z,21.51
2022-08-03T17:41:35.432Z,21.59
2022-08-03T17:44:15.465Z,21.72
2022-08-03T17:46:44.443Z,21.70
2022-08-03T17:49:24.496Z,21.82
2022-08-03T17:51:53.094Z,21.78
2022-08-03T17:54:20.152Z,22.06
2022-08-03T17:56:46.764Z,21.82
2022-08-03T17:59:13.319Z,23.47
2022-08-03T18:02:02.589Z,23.44
2022-08-03T18:04:30.061Z,22.68
2022-08-03T18:06:57.059Z,22.22
2022-08-03T18:10:06.159Z,22.07
2022-08-03T18:12:10.143Z,22.08
2022-08-03T18:14:36.549Z,22.02
2022-08-03T18:17:03.003Z,22.26
2022-08-03T18:20:02.471Z,22.26
2022-08-03T18:22:15.851Z,22.36
2022-08-03T18:24:42.297Z,22.56
2022-08-03T18:27:08.870Z,22.53
2022-08-03T18:29:35.308Z,22.58
2022-08-03T18:32:05.312Z,22.69
2022-08-03T18:34:34.473Z,22.58
2022-08-03T18:37:01.103Z,23.41
2022-08-03T18:39:34.082Z,24.13
2022-08-03T18:42:19.625Z,23.09
2022-08-03T18:44:54.231Z,22.85
2022-08-03T18:47:22.482Z,22.80
2022-08-03T18:49:48.990Z,22.64
2022-08-03T18:52:15.404Z,22.54
2022-08-03T18:54:51.769Z,22.54
2022-08-03T18:57:30.436Z,22.59
2022-08-03T19:00:01.428Z,22.68
2022-08-03T19:02:28.915Z,22.77
2022-08-03T19:04:55.293Z,22.74
2022-08-03T19:07:24.693Z,22.74
2022-08-03T19:09:51.234Z,22.70
2022-08-03T19:12:31.163Z,22.80
2022-08-03T19:15:03.173Z,22.98
2022-08-03T19:17:29.771Z,24.30
2022-08-03T19:19:56.226Z,23.29
2022-08-03T19:22:22.753Z,22.94
2022-08-03T19:24:49.314Z,22.79
2022-08-03T19:27:16.117Z,22.72
2022-08-03T19:29:59.771Z,22.63
2022-08-03T19:32:27.588Z,22.52
2022-08-03T19:34:55.097Z,22.70
2022-08-03T19:37:22.197Z,22.91
2022-08-03T19:39:56.698Z,22.61
2022-08-03T19:42:23.444Z,22.74
2022-08-03T19:44:49.851Z,22.90
2022-08-03T19:47:18.377Z,22.93
2022-08-03T19:50:06.302Z,22.83
2022-08-03T19:52:34.465Z,22.63
2022-08-03T19:55:01.050Z,24.64
2022-08-03T19:57:27.487Z,23.77
2022-08-03T19:59:53.971Z,23.29
2022-08-03T20:02:26.598Z,23.08
2022-08-03T20:04:53.760Z,22.99
2022-08-03T20:07:22.798Z,23.20
2022-08-03T20:09:56.025Z,22.91
2022-08-03T20:12:26.448Z,23.03
2022-08-03T20:14:54.826Z,23.02
2022-08-03T20:17:22.738Z,22.92
2022-08-03T20:20:09.147Z,22.92
2022-08-03T20:22:35.638Z,22.98
2022-08-03T20:25:05.531Z,22.95
2022-08-03T20:27:32.191Z,22.94
2022-08-03T20:30:18.614Z,22.81
2022-08-03T20:32:52.807Z,24.69
2022-08-03T20:35:19.303Z,23.85
2022-08-03T20:37:46.627Z,23.48
2022-08-03T20:40:13.117Z,22.99
2022-08-03T20:42:40.694Z,23.03
2022-08-03T20:45:15.132Z,22.98
2022-08-03T20:47:53.636Z,22.94
2022-08-03T20:50:20.046Z,23.01
2022-08-03T20:52:49.728Z,23.17
2022-08-03T20:55:17.108Z,23.03
2022-08-03T20:57:43.514Z,23.06
2022-08-03T21:00:15.715Z,23.04
2022-08-03T21:02:42.172Z,23.04
2022-08-03T21:05:09.229Z,22.94
2022-08-03T21:08:04.478Z,23.04
2022-08-03T21:10:24.739Z,23.99
2022-08-03T21:13:13.573Z,24.28
2022-08-03T21:16:03.261Z,23.54
2022-08-03T21:18:27.814Z,23.12
2022-08-03T21:20:55.645Z,22.95
2022-08-03T21:23:39.732Z,22.92
2022-08-03T21:26:08.536Z,23.01
2022-08-03T21:28:34.957Z,22.77
2022-08-03T21:31:01.384Z,22.87
2022-08-03T21:33:27.869Z,22.95
2022-08-03T21:35:54.258Z,23.01
2022-08-03T21:38:20.687Z,22.84
2022-08-03T21:40:56.493Z,22.86
2022-08-03T21:43:22.983Z,23.01
2022-08-03T21:45:49.381Z,22.93
2022-08-03T21:48:15.891Z,23.75
2022-08-03T21:50:42.351Z,24.38
2022-08-03T21:53:08.793Z,23.59
2022-08-03T21:55:35.244Z,23.36
2022-08-03T21:58:01.633Z,23.04
2022-08-03T22:00:28.020Z,22.96
2022-08-03T22:02:55.761Z,22.91
2022-08-03T22:05:42.935Z,22.92
2022-08-03T22:08:09.005Z,23.03
2022-08-03T22:10:35.459Z,22.91
2022-08-03T22:13:01.868Z,22.97
2022-08-03T22:15:28.324Z,23.10
2022-08-03T22:17:57.198Z,23.18
2022-08-03T22:20:23.884Z,23.25
2022-08-03T22:22:55.352Z,23.14
2022-08-03T22:25:22.759Z,22.76
2022-08-03T22:27:49.219Z,24.80
2022-08-03T22:30:15.663Z,24.10
2022-08-03T22:32:42.039Z,23.60
2022-08-03T22:35:08.421Z,23.28
2022-08-03T22:37:34.874Z,23.26
2022-08-03T22:40:01.727Z,23.01
2022-08-03T22:42:28.209Z,22.93
2022-08-03T22:44:54.696Z,23.13
2022-08-03T22:47:22.540Z,22.95
2022-08-03T22:49:49.510Z,23.13
2022-08-03T22:52:36.041Z,22.98
2022-08-03T22:55:02.422Z,23.15
2022-08-03T22:57:28.847Z,23.33
2022-08-03T22:59:55.302Z,23.42
2022-08-03T23:02:21.814Z,23.39
2022-08-03T23:04:48.301Z,23.71
2022-08-03T23:07:14.809Z,24.66
2022-08-03T23:09:41.221Z,24.07
2022-08-03T23:12:07.666Z,23.55
2022-08-03T23:14:34.268Z,23.59
2022-08-03T23:17:00.728Z,23.38
2022-08-03T23:19:27.136Z,23.26
2022-08-03T23:22:02.814Z,23.23
2022-08-03T23:24:30.482Z,23.16
2022-08-03T23:26:57.094Z,23.28
2022-08-03T23:29:23.495Z,23.25
2022-08-03T23:31:49.922Z,23.24
2022-08-03T23:34:16.910Z,23.45
2022-08-03T23:36:43.351Z,23.35
2022-08-03T23:39:09.871Z,23.60
2022-08-03T23:41:36.491Z,23.00
2022-08-03T23:44:02.891Z,25.21
2022-08-03T23:46:30.157Z,24.41
2022-08-03T23:48:56.852Z,23.80
2022-08-03T23:51:23.259Z,23.73
2022-08-03T23:53:49.969Z,23.48
2022-08-03T23:56:16.500Z,23.52
2022-08-03T23:58:42.914Z,23.42
